Time;durP1;ratioP1;P1;durP2;ratioP2;P2;SDS_P1;SDS_P2;PMS_P1;PMS_P2;Temp;Humidity;BMP_temperature;BMP_pressure;BME280_temperature;BME280_humidity;BME280_pressure;Samples;Min_cycle;Max_cycle;Signal;HPM_P1;HPM_P2
2024/02/18 00:01:18;;;;;;;0.60;0.60;;;;;;;4.21;80.23;102723.99;104095;1288;23065;-59
2024/02/18 00:03:45;;;;;;;1.90;0.80;;;;;;;4.20;80.22;102718.67;103952;1291;26041;-59
2024/02/18 00:06:10;;;;;;;;;;;;;;;4.16;80.09;102723.27;103957;1310;25604;-57
2024/02/18 00:08:36;;;;;;;1.20;0.60;;;;;;;4.12;80.06;102726.02;104049;1307;22646;-58
2024/02/18 00:11:02;;;;;;;1.50;0.80;;;;;;;4.12;80.20;102727.37;103943;1300;22524;-59
2024/02/18 00:13:28;;;;;;;1.70;1.00;;;;;;;4.11;80.11;102729.86;104000;1310;22589;-59
2024/02/18 00:15:53;;;;;;;1.30;0.70;;;;;;;4.07;80.08;102729.52;104158;1295;22576;-58
2024/02/18 00:18:19;;;;;;;2.70;1.00;;;;;;;4.05;80.13;102728.60;104240;1310;23631;-59
2024/02/18 00:20:44;;;;;;;2.20;0.80;;;;;;;4.02;79.99;102725.56;103813;1298;22565;-58
2024/02/18 00:23:10;;;;;;;2.20;0.80;;;;;;;4.02;80.18;102727.60;103977;1290;22656;-56
2024/02/18 00:25:35;;;;;;;1.10;0.60;;;;;;;4.05;80.24;102726.20;103903;1310;25437;-58
2024/02/18 00:28:01;;;;;;;1.30;0.90;;;;;;;4.05;80.12;102721.77;103944;1310;22575;-58
2024/02/18 00:30:27;;;;;;;1.20;0.90;;;;;;;4.04;80.20;102721.20;103903;1311;25488;-57
2024/02/18 00:32:52;;;;;;;2.60;1.10;;;;;;;4.07;80.30;102719.28;103878;1294;22791;-57
2024/02/18 00:35:18;;;;;;;1.30;1.00;;;;;;;4.09;80.29;102713.57;104124;1294;25331;-57
2024/02/18 00:37:44;;;;;;;1.30;0.70;;;;;;;4.09;80.23;102712.40;104077;1310;25282;-59
2024/02/18 00:40:10;;;;;;;1.60;0.70;;;;;;;4.06;80.15;102713.08;104397;1310;22853;-58
2024/02/18 00:42:36;;;;;;;0.90;0.80;;;;;;;4.00;80.10;102713.02;104036;1291;22696;-59
2024/02/18 00:45:01;;;;;;;0.70;0.60;;;;;;;3.95;80.06;102712.78;104008;1310;22811;-57
2024/02/18 00:47:27;;;;;;;1.40;0.90;;;;;;;3.90;80.09;102713.58;103956;1310;26105;-58
2024/02/18 00:49:52;;;;;;;0.60;0.50;;;;;;;3.88;80.14;102714.84;103757;1310;25532;-58
2024/02/18 00:52:18;;;;;;;0.90;0.40;;;;;;;3.91;80.28;102714.48;103940;1290;23518;-59
2024/02/18 00:54:44;;;;;;;1.40;0.90;;;;;;;3.90;80.09;102711.69;104088;1292;22589;-63
2024/02/18 00:57:09;;;;;;;0.80;0.60;;;;;;;3.84;80.03;102711.08;104154;1310;22556;-59
2024/02/18 00:59:35;;;;;;;1.10;0.60;;;;;;;3.77;80.05;102711.30;104160;1311;22714;-62
2024/02/18 01:02:00;;;;;;;1.20;0.80;;;;;;;3.74;80.17;102716.95;104095;1304;22584;-59
2024/02/18 01:04:26;;;;;;;3.90;1.40;;;;;;;3.73;80.15;102713.33;103981;1290;23287;-56
2024/02/18 01:06:51;;;;;;;6.90;2.10;;;;;;;3.72;80.15;102716.83;103987;1297;25515;-59
2024/02/18 01:09:17;;;;;;;1.40;0.80;;;;;;;3.69;80.18;102720.48;103905;1310;24323;-56
2024/02/18 01:11:43;;;;;;;3.10;1.70;;;;;;;3.70;80.53;102723.05;103873;1298;25982;-58
2024/02/18 01:14:08;;;;;;;6.60;1.60;;;;;;;3.74;80.55;102720.52;103982;1291;22557;-59
2024/02/18 01:16:34;;;;;;;3.70;1.60;;;;;;;3.77;80.52;102718.11;103978;1305;23450;-58
2024/02/18 01:18:59;;;;;;;3.60;1.60;;;;;;;3.79;80.48;102717.85;104172;1310;22572;-59
2024/02/18 01:21:25;;;;;;;4.30;1.50;;;;;;;3.82;80.52;102718.36;104161;1305;22586;-58
2024/02/18 01:23:51;;;;;;;2.00;1.10;;;;;;;3.85;80.34;102719.14;104024;1287;22591;-59
2024/02/18 01:26:16;;;;;;;4.20;1.10;;;;;;;3.83;80.44;102721.44;104045;1310;22552;-60
2024/02/18 01:28:42;;;;;;;4.00;1.50;;;;;;;3.83;80.65;102721.27;103671;1310;24756;-60
2024/02/18 01:31:08;;;;;;;1.90;1.30;;;;;;;3.84;80.58;102721.32;103923;1310;24956;-60
2024/02/18 01:33:33;;;;;;;4.10;1.70;;;;;;;3.81;80.29;102722.36;103819;1291;23930;-59
2024/02/18 01:35:59;;;;;;;25.00;12.00;;;;;;;3.73;80.32;102727.84;104013;1305;22559;-60
2024/02/18 01:38:25;;;;;;;9.20;5.10;;;;;;;3.68;80.32;102727.42;103822;1296;22582;-59
2024/02/18 01:40:50;;;;;;;4.80;2.30;;;;;;;3.63;80.36;102730.79;104072;1310;22776;-58
2024/02/18 01:43:17;;;;;;;7.10;3.50;;;;;;;3.62;80.54;102736.04;103910;1301;22565;-59
2024/02/18 01:45:47;;;;;;;7.40;3.90;;;;;;;3.65;80.78;102732.92;103919;1294;22722;-58
2024/02/18 01:48:16;;;;;;;4.90;2.50;;;;;;;3.71;80.71;102732.48;103916;1310;22601;-56
2024/02/18 01:50:44;;;;;;;2.60;1.60;;;;;;;3.70;80.39;102735.69;102551;1293;5003710;-60
2024/02/18 01:53:10;;;;;;;10.40;2.40;;;;;;;3.64;80.53;102732.21;105871;1311;24249;-58
2024/02/18 01:55:37;;;;;;;2.80;1.40;;;;;;;3.67;80.69;102734.02;103965;1292;25294;-60
2024/02/18 01:58:04;;;;;;;3.20;1.80;;;;;;;3.69;80.70;102737.16;105159;1305;24894;-59
2024/02/18 02:00:30;;;;;;;3.40;1.30;;;;;;;3.70;80.82;102735.16;104075;1310;22559;-57
2024/02/18 02:02:56;;;;;;;4.60;1.10;;;;;;;3.69;80.73;102735.30;103964;1309;22707;-59
2024/02/18 02:05:22;;;;;;;1.50;1.00;;;;;;;3.67;80.61;102733.84;105829;1288;26594;-57
2024/02/18 02:07:49;;;;;;;1.90;1.30;;;;;;;3.61;80.46;102729.00;103957;1310;24634;-61
2024/02/18 02:10:16;;;;;;;2.60;1.20;;;;;;;3.54;80.50;102732.08;104006;1310;22558;-59
2024/02/18 02:12:42;;;;;;;3.50;1.30;;;;;;;3.53;80.61;102730.16;103958;1310;27890;-59
2024/02/18 02:15:10;;;;;;;1.80;1.10;;;;;;;3.52;80.67;102730.27;103927;1291;22556;-59
2024/02/18 02:17:37;;;;;;;1.60;1.10;;;;;;;3.49;80.72;102729.27;104213;1306;23425;-59
2024/02/18 02:20:04;;;;;;;4.70;1.30;;;;;;;3.46;80.77;102730.83;104780;1304;22506;-59
2024/02/18 02:22:30;;;;;;;3.20;1.50;;;;;;;3.45;80.78;102729.60;107397;1308;22210;-60
2024/02/18 02:24:55;;;;;;;1.80;1.20;;;;;;;3.43;80.69;102730.55;104286;1293;25640;-60
2024/02/18 02:27:29;;;;;;;1.40;1.00;;;;;;;3.41;80.67;102733.69;103656;1297;23795;-60
2024/02/18 02:29:55;;;;;;;4.20;1.30;;;;;;;3.41;80.62;102727.04;103734;1298;22566;-58
2024/02/18 02:32:20;;;;;;;2.70;1.40;;;;;;;3.42;80.75;102734.21;103590;1310;22567;-59
2024/02/18 02:34:46;;;;;;;4.60;1.60;;;;;;;3.40;80.69;102732.77;103727;1294;24439;-57
2024/02/18 02:37:11;;;;;;;2.10;1.10;;;;;;;3.36;80.73;102727.65;103960;1298;25376;-59
2024/02/18 02:39:37;;;;;;;2.90;1.40;;;;;;;3.38;80.92;102724.87;103914;1305;22586;-59
2024/02/18 02:42:04;;;;;;;1.40;1.00;;;;;;;3.39;80.87;102720.45;103931;1308;23969;-59
2024/02/18 02:44:29;;;;;;;;;;;;;;;3.39;81.07;102726.06;104366;1310;22568;-55
2024/02/18 02:46:55;;;;;;;5.20;1.20;;;;;;;3.40;81.17;102729.52;103905;1290;25383;-58
2024/02/18 02:49:20;;;;;;;4.00;1.40;;;;;;;3.42;81.15;102732.52;103891;1310;22586;-60
2024/02/18 02:51:46;;;;;;;2.30;1.30;;;;;;;3.42;80.96;102733.56;103888;1310;24128;-58
2024/02/18 02:54:11;;;;;;;2.00;1.30;;;;;;;3.37;81.09;102733.83;103947;1310;22647;-57
2024/02/18 02:56:36;;;;;;;3.90;1.10;;;;;;;3.37;81.03;102733.14;104005;1295;22601;-59
2024/02/18 02:59:02;;;;;;;2.40;1.20;;;;;;;3.34;80.92;102734.89;104089;1310;22634;-59
2024/02/18 03:01:28;;;;;;;1.70;1.00;;;;;;;3.29;80.96;102737.05;104031;1310;22608;-60
2024/02/18 03:03:53;;;;;;;3.50;1.30;;;;;;;3.22;80.99;102737.23;104086;1310;24172;-59
2024/02/18 03:06:19;;;;;;;1.10;1.00;;;;;;;3.13;81.05;102735.77;103944;1291;22597;-60
2024/02/18 03:08:44;;;;;;;4.40;1.20;;;;;;;3.11;81.15;102735.85;103760;1310;22577;-57
2024/02/18 03:11:11;;;;;;;2.00;1.20;;;;;;;3.14;81.28;102738.17;104077;1310;22995;-57
2024/02/18 03:13:37;;;;;;;2.50;1.80;;;;;;;3.17;81.35;102737.84;104025;1310;22562;-60
2024/02/18 03:16:02;;;;;;;1.10;1.00;;;;;;;3.19;81.19;102739.43;104013;1291;25648;-59
2024/02/18 03:18:28;;;;;;;2.20;1.10;;;;;;;3.16;81.18;102741.67;104017;1310;22690;-59
2024/02/18 03:20:54;;;;;;;1.90;1.10;;;;;;;3.15;81.08;102742.66;103945;1310;26584;-60
2024/02/18 03:23:19;;;;;;;1.10;0.90;;;;;;;3.12;81.27;102740.67;104074;1310;23929;-57
2024/02/18 03:25:45;;;;;;;2.10;1.10;;;;;;;3.12;81.38;102738.96;104110;1310;22620;-56
2024/02/18 03:28:11;;;;;;;3.00;0.90;;;;;;;3.12;81.33;102740.50;104010;1311;22687;-59
2024/02/18 03:30:37;;;;;;;2.10;0.90;;;;;;;3.11;81.41;102741.30;103907;1297;22524;-59
2024/02/18 03:33:03;;;;;;;1.50;1.10;;;;;;;3.13;81.59;102732.86;103906;1304;23122;-58
2024/02/18 03:35:29;;;;;;;2.40;1.20;;;;;;;3.16;81.58;102726.35;104007;1304;24975;-59
2024/02/18 03:37:56;;;;;;;1.90;0.80;;;;;;;3.16;81.56;102724.48;104077;1295;22758;-60
2024/02/18 03:40:22;;;;;;;0.90;0.50;;;;;;;3.15;81.48;102722.73;105329;1310;22701;-59
2024/02/18 03:42:49;;;;;;;1.40;0.90;;;;;;;3.13;81.47;102727.55;104079;1310;22529;-60
2024/02/18 03:45:15;;;;;;;0.90;0.80;;;;;;;3.10;81.39;102724.56;104173;1310;25832;-58
2024/02/18 03:47:43;;;;;;;2.90;0.90;;;;;;;3.06;81.40;102718.02;104161;1288;22725;-59
2024/02/18 03:50:10;;;;;;;2.70;0.80;;;;;;;3.05;81.44;102716.63;104427;1307;25609;-60
2024/02/18 03:52:36;;;;;;;1.90;0.90;;;;;;;3.01;81.35;102715.94;104962;1304;22785;-59
2024/02/18 03:55:02;;;;;;;1.60;1.00;;;;;;;2.97;81.48;102715.24;104070;1290;23991;-59
2024/02/18 03:57:27;;;;;;;1.00;0.80;;;;;;;2.96;81.44;102716.39;96610;1294;5003439;-59
2024/02/18 03:59:53;;;;;;;1.40;0.80;;;;;;;2.94;81.29;102719.35;103877;1310;25637;-57
2024/02/18 04:02:18;;;;;;;1.10;0.80;;;;;;;2.88;81.22;102720.06;104139;1310;22583;-60
2024/02/18 04:04:44;;;;;;;0.90;0.80;;;;;;;2.85;81.48;102723.31;104132;1310;22674;-59
2024/02/18 04:07:09;;;;;;;1.70;0.90;;;;;;;2.76;81.50;102723.05;104155;1298;22768;-57
2024/02/18 04:09:35;;;;;;;1.80;0.90;;;;;;;2.73;81.47;102728.54;104310;1310;24299;-60
2024/02/18 04:12:00;;;;;;;2.20;1.00;;;;;;;2.73;81.64;102730.02;104199;1308;22666;-59
2024/02/18 04:14:26;;;;;;;2.70;0.70;;;;;;;2.73;81.78;102730.56;104138;1294;22604;-59
2024/02/18 04:16:53;;;;;;;3.00;1.20;;;;;;;2.73;81.83;102735.30;104158;1288;22695;-60
2024/02/18 04:19:19;;;;;;;2.50;0.80;;;;;;;2.72;81.81;102733.58;103962;1310;23064;-60
2024/02/18 04:21:44;;;;;;;1.10;0.80;;;;;;;2.70;81.82;102736.54;104172;1305;22561;-59
2024/02/18 04:24:10;;;;;;;1.20;1.00;;;;;;;2.70;81.82;102734.16;104217;1308;22622;-60
2024/02/18 04:26:35;;;;;;;2.00;1.20;;;;;;;2.68;81.62;102736.23;104206;1295;22532;-65
2024/02/18 04:29:01;;;;;;;1.00;0.90;;;;;;;2.63;81.64;102735.54;104166;1310;22888;-59
2024/02/18 04:31:26;;;;;;;1.90;0.90;;;;;;;2.62;81.67;102736.67;104167;1304;24336;-58
2024/02/18 04:33:52;;;;;;;2.90;1.10;;;;;;;2.58;81.76;102734.29;104101;1304;24001;-59
2024/02/18 04:36:17;;;;;;;1.00;0.60;;;;;;;2.57;81.76;102739.34;104236;1295;25774;-58
2024/02/18 04:38:46;;;;;;;1.60;1.00;;;;;;;2.58;81.94;102736.98;104160;1292;22561;-60
2024/02/18 04:41:14;;;;;;;1.10;1.00;;;;;;;2.60;81.75;102740.30;107194;1304;22258;-56
2024/02/18 04:43:40;;;;;;;0.90;0.80;;;;;;;2.57;81.78;102742.88;107146;1308;22435;-59
2024/02/18 04:46:05;;;;;;;1.20;1.10;;;;;;;2.56;81.92;102744.88;104012;1305;25456;-60
2024/02/18 04:48:31;;;;;;;1.60;0.70;;;;;;;2.56;82.02;102743.52;104070;1291;22559;-60
2024/02/18 04:50:56;;;;;;;1.10;0.60;;;;;;;2.59;82.12;102740.46;104135;1307;24312;-59
2024/02/18 04:53:22;;;;;;;1.70;1.50;;;;;;;2.62;82.20;102740.23;103928;1307;22628;-60
2024/02/18 04:55:47;;;;;;;1.00;0.70;;;;;;;2.61;81.80;102746.98;104240;1310;23030;-58
2024/02/18 04:58:13;;;;;;;1.70;1.00;;;;;;;2.55;81.90;102742.44;103982;1295;23430;-62
2024/02/18 05:00:38;;;;;;;1.90;1.00;;;;;;;2.53;82.08;102745.07;104181;1300;22569;-57
2024/02/18 05:03:04;;;;;;;1.80;0.90;;;;;;;2.53;82.15;102753.27;104079;1296;23873;-59
2024/02/18 05:05:29;;;;;;;1.30;0.60;;;;;;;2.56;82.10;102756.63;104150;1311;25985;-58
2024/02/18 05:07:55;;;;;;;2.40;1.60;;;;;;;2.56;82.18;102752.91;104200;1291;25444;-61
2024/02/18 05:10:21;;;;;;;1.40;0.90;;;;;;;2.57;82.36;102750.58;104243;1306;22629;-59
2024/02/18 05:12:46;;;;;;;1.70;0.90;;;;;;;2.57;82.17;102751.61;104215;1299;22670;-59
2024/02/18 05:15:12;;;;;;;2.20;1.00;;;;;;;2.58;82.29;102752.86;103972;1302;23976;-59
2024/02/18 05:17:39;;;;;;;1.10;1.00;;;;;;;2.58;82.30;102752.31;104304;1288;22528;-59
2024/02/18 05:20:09;;;;;;;1.10;0.90;;;;;;;2.58;82.16;102755.55;104108;1304;22536;-58
2024/02/18 05:22:39;;;;;;;2.00;1.00;;;;;;;2.56;81.95;102757.65;104177;1303;23154;-64
2024/02/18 05:25:04;;;;;;;2.30;0.70;;;;;;;2.52;82.00;102755.58;105637;1299;22569;-59
2024/02/18 05:27:29;;;;;;;1.50;1.00;;;;;;;2.52;82.18;102748.92;104164;1310;24797;-60
2024/02/18 05:29:55;;;;;;;2.30;1.00;;;;;;;2.53;82.23;102742.89;104181;1288;22654;-60
2024/02/18 05:32:22;;;;;;;1.20;0.90;;;;;;;2.53;82.13;102740.84;104201;1308;25445;-59
2024/02/18 05:34:47;;;;;;;;;;;;;;;2.55;82.18;102744.66;104130;1308;23074;-59
2024/02/18 05:37:13;;;;;;;1.10;1.00;;;;;;;2.56;82.22;102741.52;104126;1297;22795;-58
2024/02/18 05:39:38;;;;;;;1.30;0.60;;;;;;;2.58;82.27;102744.84;103986;1293;22621;-59
2024/02/18 05:42:06;;;;;;;1.70;1.20;;;;;;;2.60;82.35;102747.11;103913;1310;22705;-60
2024/02/18 05:44:32;;;;;;;4.20;2.10;;;;;;;2.61;82.40;102748.33;103877;1310;23327;-59
2024/02/18 05:46:57;;;;;;;2.20;1.30;;;;;;;2.62;82.40;102752.99;104031;1306;23221;-60
2024/02/18 05:49:22;;;;;;;2.30;1.40;;;;;;;2.62;82.43;102754.03;104011;1294;25372;-57
2024/02/18 05:51:54;;;;;;;1.50;1.20;;;;;;;2.65;82.37;102760.11;104299;1310;22634;-58
2024/02/18 05:54:20;;;;;;;7.40;3.80;;;;;;;2.61;82.23;102764.20;104273;1287;24237;-56
2024/02/18 05:56:47;;;;;;;7.90;4.20;;;;;;;2.58;82.36;102760.13;105083;1310;25448;-58
2024/02/18 05:59:12;;;;;;;;;;;;;;;2.54;82.36;102757.38;103982;1291;25415;-58
2024/02/18 06:01:38;;;;;;;5.00;3.10;;;;;;;2.53;82.58;102760.23;104003;1309;22600;-56
2024/02/18 06:04:03;;;;;;;4.10;3.00;;;;;;;2.53;82.40;102757.86;104080;1310;22711;-58
2024/02/18 06:06:30;;;;;;;5.30;3.30;;;;;;;2.52;82.31;102762.58;104089;1309;22764;-59
2024/02/18 06:08:56;;;;;;;;;;;;;;;2.50;82.31;102765.34;104086;1288;22989;-59
2024/02/18 06:11:22;;;;;;;5.00;3.50;;;;;;;2.51;82.47;102768.78;104221;1308;26566;-57
2024/02/18 06:13:47;;;;;;;4.10;3.10;;;;;;;2.51;82.47;102768.63;104357;1310;22733;-57
2024/02/18 06:16:13;;;;;;;7.90;3.80;;;;;;;2.51;82.42;102773.58;104214;1310;22627;-59
2024/02/18 06:18:38;;;;;;;4.50;3.00;;;;;;;2.51;82.32;102767.11;103936;1304;22862;-58
2024/02/18 06:21:04;;;;;;;5.50;3.70;;;;;;;2.50;82.36;102775.05;103969;1290;22653;-59
2024/02/18 06:23:30;;;;;;;7.90;5.60;;;;;;;2.50;82.31;102777.42;104031;1310;22683;-58
2024/02/18 06:25:56;;;;;;;6.30;4.10;;;;;;;2.51;82.51;102780.40;104061;1310;22526;-58
2024/02/18 06:28:22;;;;;;;7.10;4.50;;;;;;;2.56;82.71;102773.85;104106;1310;25412;-59
2024/02/18 06:30:48;;;;;;;4.40;3.10;;;;;;;2.61;82.76;102769.98;104162;1291;22680;-60
2024/02/18 06:33:14;;;;;;;2.40;1.60;;;;;;;2.64;82.57;102768.27;104220;1310;22571;-58
2024/02/18 06:35:39;;;;;;;4.90;3.10;;;;;;;2.68;82.55;102765.91;104174;1294;24324;-59
2024/02/18 06:38:05;;;;;;;1.80;1.10;;;;;;;2.70;82.40;102766.51;104195;1308;23281;-56
2024/02/18 06:40:31;;;;;;;1.30;1.00;;;;;;;2.71;81.99;102767.59;104099;1294;24187;-58
2024/02/18 06:42:57;;;;;;;0.80;0.50;;;;;;;2.76;82.32;102767.65;104088;1310;25643;-59
2024/02/18 06:45:22;;;;;;;1.30;0.80;;;;;;;2.80;82.24;102763.48;104128;1310;22829;-58
2024/02/18 06:47:48;;;;;;;2.90;1.00;;;;;;;2.85;82.27;102758.08;103987;1300;22629;-59
2024/02/18 06:50:15;;;;;;;2.10;1.70;;;;;;;2.91;82.42;102755.33;104003;1308;24267;-58
2024/02/18 06:52:40;;;;;;;;;;;;;;;2.93;82.45;102757.83;103924;1310;22568;-58
2024/02/18 06:55:06;;;;;;;1.50;1.00;;;;;;;2.97;82.46;102762.75;104109;1305;22899;-58
2024/02/18 06:57:32;;;;;;;0.90;0.40;;;;;;;2.99;82.53;102762.20;107394;1310;22428;-57
2024/02/18 06:59:58;;;;;;;1.20;0.50;;;;;;;3.05;82.05;102760.40;107419;1288;22920;-58
2024/02/18 07:02:23;;;;;;;0.80;0.60;;;;;;;3.11;81.97;102764.11;107370;1305;22390;-60
2024/02/18 07:04:49;;;;;;;0.90;0.40;;;;;;;3.17;81.66;102762.86;107326;1310;22236;-59
2024/02/18 07:07:15;;;;;;;0.50;0.40;;;;;;;3.24;82.04;102765.59;107110;1309;22421;-59
2024/02/18 07:09:42;;;;;;;0.60;0.50;;;;;;;3.31;82.11;102765.28;106242;1289;24259;-57
2024/02/18 07:12:08;;;;;;;1.50;0.60;;;;;;;3.40;82.23;102768.05;103820;1295;22979;-59
2024/02/18 07:14:34;;;;;;;1.40;0.50;;;;;;;3.49;82.38;102767.31;103918;1297;22551;-58
2024/02/18 07:17:00;;;;;;;1.30;0.50;;;;;;;3.58;82.29;102774.05;103981;1310;24145;-60
2024/02/18 07:19:25;;;;;;;1.50;1.00;;;;;;;3.63;82.43;102773.77;104047;1310;22662;-57
2024/02/18 07:21:51;;;;;;;1.50;0.50;;;;;;;3.66;82.02;102774.89;104080;1303;22974;-57
2024/02/18 07:24:16;;;;;;;1.10;0.90;;;;;;;3.71;82.25;102777.55;104240;1305;22576;-59
2024/02/18 07:26:42;;;;;;;1.90;0.90;;;;;;;3.78;82.21;102780.95;104192;1305;22585;-59
2024/02/18 07:29:07;;;;;;;2.80;1.00;;;;;;;3.85;82.43;102784.66;104135;1307;25342;-59
2024/02/18 07:31:36;;;;;;;1.60;1.20;;;;;;;3.88;82.19;102785.16;104111;1291;22674;-61
2024/02/18 07:34:05;;;;;;;1.80;1.00;;;;;;;3.90;81.12;102784.72;107113;1310;22262;-59
2024/02/18 07:36:34;;;;;;;2.70;0.90;;;;;;;3.88;79.67;102778.48;107461;1304;22276;-58
2024/02/18 07:38:59;;;;;;;1.80;1.00;;;;;;;3.95;81.38;102776.29;107437;1310;22285;-60
2024/02/18 07:41:26;;;;;;;2.10;0.90;;;;;;;4.08;81.52;102777.70;107211;1290;22273;-58
2024/02/18 07:43:52;;;;;;;2.80;1.30;;;;;;;4.21;81.54;102778.46;107372;1311;22256;-59
2024/02/18 07:46:18;;;;;;;2.90;1.70;;;;;;;4.27;80.76;102776.98;107181;1308;23109;-58
2024/02/18 07:48:44;;;;;;;4.60;1.40;;;;;;;4.37;80.47;102779.85;107410;1310;22847;-59
2024/02/18 07:51:10;;;;;;;2.10;1.30;;;;;;;4.45;80.31;102774.71;107092;1294;23227;-60
2024/02/18 07:53:35;;;;;;;1.80;1.00;;;;;;;4.45;79.60;102761.38;107394;1310;23011;-60
2024/02/18 07:56:01;;;;;;;2.80;1.20;;;;;;;4.49;79.57;102754.91;107397;1310;23003;-60
2024/02/18 07:58:26;;;;;;;1.70;1.00;;;;;;;4.60;80.28;102753.88;107373;1310;22247;-59
2024/02/18 08:00:52;;;;;;;1.30;1.00;;;;;;;4.73;80.43;102750.98;107379;1289;22445;-59
2024/02/18 08:03:17;;;;;;;2.10;1.10;;;;;;;4.83;79.99;102752.06;107386;1302;22450;-60
2024/02/18 08:05:43;;;;;;;2.10;1.20;;;;;;;4.82;78.13;102750.33;107415;1310;23405;-60
2024/02/18 08:08:08;;;;;;;2.00;0.90;;;;;;;4.75;76.80;102746.77;107477;1309;22413;-58
2024/02/18 08:10:34;;;;;;;0.80;0.60;;;;;;;4.71;77.50;102746.44;107431;1307;22907;-58
2024/02/18 08:12:59;;;;;;;3.30;0.90;;;;;;;4.69;77.81;102747.02;107405;1290;22271;-60
2024/02/18 08:15:25;;;;;;;2.60;1.10;;;;;;;4.62;77.15;102744.89;107403;1310;22678;-59
2024/02/18 08:17:50;;;;;;;1.10;1.00;;;;;;;4.56;78.10;102741.77;107361;1304;22252;-60
2024/02/18 08:20:16;;;;;;;2.10;1.10;;;;;;;4.53;76.58;102740.90;107381;1307;22267;-60
2024/02/18 08:22:41;;;;;;;2.00;0.90;;;;;;;4.46;76.20;102745.02;107310;1291;22670;-61
2024/02/18 08:25:07;;;;;;;2.60;1.30;;;;;;;4.43;77.73;102742.33;107427;1304;22616;-58
2024/02/18 08:27:34;;;;;;;1.10;0.90;;;;;;;4.37;76.43;102741.91;104548;1295;24198;-59
2024/02/18 08:29:59;;;;;;;3.50;0.60;;;;;;;4.32;76.60;102740.16;104104;1310;22652;-58
2024/02/18 08:32:25;;;;;;;2.00;0.70;;;;;;;4.38;76.78;102742.29;96915;1291;10001859;-59
2024/02/18 08:34:50;;;;;;;6.60;1.00;;;;;;;4.44;75.58;102748.19;103749;1310;25298;-58
2024/02/18 08:37:16;;;;;;;1.80;1.20;;;;;;;4.45;76.25;102751.33;104118;1310;24227;-58
2024/02/18 08:39:41;;;;;;;1.30;1.00;;;;;;;4.52;75.91;102748.20;104159;1310;23046;-58
2024/02/18 08:42:07;;;;;;;1.30;1.00;;;;;;;4.61;77.13;102745.02;103846;1294;23927;-60
2024/02/18 08:44:32;;;;;;;2.90;0.90;;;;;;;4.70;76.99;102741.45;104095;1304;22559;-58
2024/02/18 08:46:58;;;;;;;4.30;1.70;;;;;;;4.77;77.17;102741.04;104101;1307;24408;-59
2024/02/18 08:49:23;;;;;;;2.90;1.20;;;;;;;4.82;77.07;102742.79;104076;1310;25572;-57
2024/02/18 08:51:49;;;;;;;4.60;0.80;;;;;;;4.91;77.49;102744.73;104144;1289;22562;-58
2024/02/18 08:54:15;;;;;;;2.20;0.80;;;;;;;4.98;77.16;102739.05;104122;1295;23260;-58
2024/02/18 08:56:40;;;;;;;4.60;0.90;;;;;;;5.00;76.19;102739.61;103866;1310;23111;-58
2024/02/18 08:59:06;;;;;;;2.00;1.30;;;;;;;4.95;76.23;102739.94;104107;1310;25534;-59
2024/02/18 09:01:32;;;;;;;0.70;0.70;;;;;;;4.90;74.75;102744.00;103864;1301;22599;-58
2024/02/18 09:03:58;;;;;;;1.50;0.80;;;;;;;4.83;74.49;102744.73;104019;1289;22554;-59
2024/02/18 09:06:24;;;;;;;1.80;0.80;;;;;;;4.78;75.00;102744.35;104225;1305;22586;-57
2024/02/18 09:08:49;;;;;;;2.50;0.80;;;;;;;4.79;74.47;102742.83;104076;1301;25343;-60
2024/02/18 09:11:14;;;;;;;2.40;0.80;;;;;;;4.78;74.53;102738.89;104149;1306;22578;-57
2024/02/18 09:13:40;;;;;;;2.90;0.80;;;;;;;4.74;72.51;102738.34;104000;1292;25508;-58
2024/02/18 09:16:06;;;;;;;1.50;0.60;;;;;;;4.75;74.39;102723.52;104354;1310;22563;-59
2024/02/18 09:18:31;;;;;;;1.00;0.60;;;;;;;5.08;74.66;102719.05;104141;1310;25430;-58
2024/02/18 09:20:57;;;;;;;3.00;0.80;;;;;;;5.82;72.02;102721.39;103819;1310;26397;-58
2024/02/18 09:23:22;;;;;;;1.60;0.80;;;;;;;5.81;72.60;102717.45;104174;1304;22740;-59
2024/02/18 09:25:48;;;;;;;5.30;0.90;;;;;;;5.79;71.94;102715.83;103988;1310;22681;-57
2024/02/18 09:28:14;;;;;;;0.80;0.80;;;;;;;5.71;71.57;102718.60;104083;1310;22737;-58
2024/02/18 09:30:39;;;;;;;3.10;1.00;;;;;;;5.56;72.13;102716.52;103850;1305;22696;-59
2024/02/18 09:33:06;;;;;;;2.10;0.90;;;;;;;5.50;71.17;102712.17;104007;1291;22570;-59
2024/02/18 09:35:31;;;;;;;1.40;1.00;;;;;;;5.51;72.66;102712.92;104203;1301;26658;-57
2024/02/18 09:37:57;;;;;;;2.50;0.70;;;;;;;5.56;71.53;102717.52;104090;1310;23029;-59
2024/02/18 09:40:23;;;;;;;1.40;0.70;;;;;;;5.53;71.71;102719.66;107218;1310;22248;-58
2024/02/18 09:42:52;;;;;;;1.30;0.90;;;;;;;5.56;72.95;102719.94;107424;1289;22455;-61
2024/02/18 09:45:28;;;;;;;1.70;1.00;;;;;;;5.58;71.44;102721.36;104491;1305;22565;-58
2024/02/18 09:47:56;;;;;;;3.30;0.90;;;;;;;5.50;71.06;102721.23;104108;1310;22529;-58
2024/02/18 09:50:21;;;;;;;2.80;1.00;;;;;;;5.45;72.44;102724.98;104134;1307;22513;-59
2024/02/18 09:52:48;;;;;;;1.20;1.00;;;;;;;5.54;72.48;102713.70;104119;1310;24269;-59
2024/02/18 09:55:15;;;;;;;1.50;1.10;;;;;;;5.63;70.56;102716.63;100309;1294;5004322;-57
2024/02/18 09:57:40;;;;;;;2.50;1.10;;;;;;;5.63;68.24;102716.08;103761;1310;25561;-58
2024/02/18 10:00:08;;;;;;;3.10;0.90;;;;;;;5.56;70.70;102713.94;104100;1304;25006;-58
2024/02/18 10:02:35;;;;;;;1.70;0.90;;;;;;;5.37;68.16;102715.27;103934;1294;23378;-60
2024/02/18 10:05:02;;;;;;;0.90;0.80;;;;;;;5.26;70.81;102712.63;107334;1291;22341;-58
2024/02/18 10:07:28;;;;;;;2.20;0.90;;;;;;;5.28;70.80;102709.27;107342;1310;22389;-59
2024/02/18 10:09:53;;;;;;;1.10;0.80;;;;;;;5.31;71.37;102706.31;107207;1310;23115;-58
2024/02/18 10:12:20;;;;;;;3.10;1.30;;;;;;;5.40;71.82;102698.45;106180;1310;24212;-59
2024/02/18 10:14:56;;;;;;;1.50;1.10;;;;;;;5.50;71.75;102693.02;104049;1292;23437;-59
2024/02/18 10:17:22;;;;;;;;;;;;;;;5.54;70.39;102685.13;103853;1306;22822;-59
2024/02/18 10:19:47;;;;;;;1.10;0.90;;;;;;;5.53;69.26;102683.38;103829;1310;26555;-59
2024/02/18 10:22:13;;;;;;;1.00;0.90;;;;;;;5.50;68.19;102678.83;103902;1311;22587;-59
2024/02/18 10:24:39;;;;;;;2.60;1.00;;;;;;;5.62;69.21;102676.37;104054;1291;23251;-59
2024/02/18 10:27:04;;;;;;;1.50;0.90;;;;;;;5.84;69.56;102663.29;103825;1311;22836;-59
2024/02/18 10:29:30;;;;;;;1.80;1.30;;;;;;;5.81;69.20;102657.88;103652;1310;334334;-59
2024/02/18 10:31:55;;;;;;;2.40;1.30;;;;;;;5.83;69.83;102656.39;103704;1311;26165;-58
2024/02/18 10:34:21;;;;;;;3.90;0.90;;;;;;;5.81;68.66;102652.06;103790;1294;22504;-57
2024/02/18 10:36:50;;;;;;;3.30;1.20;;;;;;;5.70;69.09;102638.99;104102;1310;22836;-57
2024/02/18 10:39:16;;;;;;;1.70;1.10;;;;;;;5.69;68.34;102632.13;104242;1307;25736;-57
2024/02/18 10:42:18;;;;;;;2.10;1.30;;;;;;;5.70;68.27;102633.88;104145;1306;22903;-59
2024/02/18 10:44:45;;;;;;;2.30;0.90;;;;;;;5.62;67.83;102634.44;105631;1291;22569;-58
2024/02/18 10:47:14;;;;;;;2.20;1.00;;;;;;;5.45;67.33;102631.77;103981;1293;22607;-59
2024/02/18 10:49:45;;;;;;;2.10;1.40;;;;;;;5.36;68.33;102631.23;104144;1308;25433;-59
2024/02/18 10:52:38;;;;;;;2.60;1.30;;;;;;;5.38;68.63;102625.00;107482;1307;22370;-60
2024/02/18 10:55:12;;;;;;;3.00;1.70;;;;;;;5.52;68.92;102611.84;103936;1292;22586;-60
2024/02/18 10:57:55;;;;;;;2.60;1.60;;;;;;;5.66;68.22;102610.98;104060;1305;22757;-59
2024/02/18 11:00:23;;;;;;;2.60;1.60;;;;;;;5.79;68.84;102610.38;104019;1304;22580;-59
2024/02/18 11:03:05;;;;;;;2.90;1.40;;;;;;;6.06;69.57;102606.77;104094;1307;22585;-59
2024/02/18 11:05:35;;;;;;;1.60;1.20;;;;;;;6.31;67.34;102600.04;103956;1291;22573;-57
2024/02/18 11:08:03;;;;;;;2.30;1.50;;;;;;;6.18;66.47;102592.10;107015;1310;22560;-58
2024/02/18 11:10:30;;;;;;;3.40;1.30;;;;;;;6.06;67.13;102582.80;104207;1310;24501;-59
2024/02/18 11:12:56;;;;;;;3.10;1.20;;;;;;;6.06;67.24;102580.56;104141;1310;22732;-57
2024/02/18 11:15:22;;;;;;;4.60;1.40;;;;;;;6.10;67.12;102577.77;104144;1291;25982;-59
2024/02/18 11:17:48;;;;;;;1.80;1.60;;;;;;;6.13;66.93;102572.75;103877;1310;23028;-59
2024/02/18 11:20:15;;;;;;;3.10;1.50;;;;;;;6.11;64.22;102573.19;104018;1310;25445;-60
2024/02/18 11:22:41;;;;;;;3.50;2.00;;;;;;;6.31;65.52;102573.68;103921;1310;22574;-59